Time;durP1;ratioP1;P1;durP2;ratioP2;P2;SDS_P1;SDS_P2;PMS_P1;PMS_P2;Temp;Humidity;BMP_temperature;BMP_pressure;BME280_temperature;BME280_humidity;BME280_pressure;Samples;Min_cycle;Max_cycle;Signal;HPM_P1;HPM_P2
2024/02/28 00:02:51;;;;;;;10.88;3.28;;;8.30;99.90;;;;;;6249561;28;20137;-83
2024/02/28 00:05:52;;;;;;;10.93;3.20;;;8.30;99.90;;;;;;6261271;28;20063;-83
2024/02/28 00:08:54;;;;;;;12.32;3.55;;;8.30;99.90;;;;;;6239780;28;20050;-83
2024/02/28 00:11:56;;;;;;;10.93;2.90;;;8.30;99.90;;;;;;6274749;28;20048;-83
2024/02/28 00:14:57;;;;;;;11.05;3.15;;;8.20;99.90;;;;;;6231430;28;20058;-83
2024/02/28 00:17:59;;;;;;;7.95;2.80;;;8.20;99.90;;;;;;6231779;28;20088;-82
2024/02/28 00:21:01;;;;;;;8.43;2.72;;;8.20;99.90;;;;;;6244271;28;20053;-83
2024/02/28 00:24:02;;;;;;;10.93;2.83;;;8.20;99.90;;;;;;6242802;28;20080;-82
2024/02/28 00:27:04;;;;;;;10.02;2.53;;;8.30;99.90;;;;;;6250304;28;20049;-82
2024/02/28 00:30:06;;;;;;;13.60;2.80;;;8.30;99.90;;;;;;6265859;28;20053;-83
2024/02/28 00:33:08;;;;;;;7.57;2.80;;;8.30;99.90;;;;;;6245495;28;20045;-83
2024/02/28 00:36:10;;;;;;;9.82;3.15;;;8.30;99.90;;;;;;6249292;28;20049;-82
2024/02/28 00:39:12;;;;;;;11.15;2.97;;;8.30;99.90;;;;;;6258787;28;20740;-82
2024/02/28 00:42:13;;;;;;;12.50;2.95;;;8.30;99.90;;;;;;6246320;28;20065;-82
2024/02/28 00:45:15;;;;;;;10.00;2.90;;;8.30;99.90;;;;;;6256135;28;20053;-82
2024/02/28 00:48:17;;;;;;;10.15;2.83;;;8.30;99.90;;;;;;6244562;28;20510;-82
2024/02/28 00:51:18;;;;;;;13.85;2.72;;;8.30;99.90;;;;;;6263830;28;20111;-83
2024/02/28 00:54:21;;;;;;;7.75;2.63;;;8.40;99.90;;;;;;6270057;28;20049;-82
2024/02/28 00:57:23;;;;;;;11.90;2.95;;;8.10;99.90;;;;;;6238642;28;20060;-83
2024/02/28 01:00:25;;;;;;;9.38;3.20;;;8.30;99.90;;;;;;6264894;28;20056;-83
2024/02/28 01:03:27;;;;;;;11.85;2.85;;;8.10;99.90;;;;;;6246309;28;20056;-83
2024/02/28 01:06:28;;;;;;;15.43;3.15;;;8.40;99.90;;;;;;6269761;28;20076;-83
2024/02/28 01:09:30;;;;;;;12.52;2.78;;;8.10;99.90;;;;;;6242898;28;20045;-83
2024/02/28 01:12:32;;;;;;;14.68;2.60;;;8.30;99.90;;;;;;6269546;28;20079;-83
2024/02/28 01:15:34;;;;;;;14.55;3.03;;;8.00;99.90;;;;;;6240600;28;20213;-83
2024/02/28 01:18:35;;;;;;;13.25;2.92;;;8.00;99.90;;;;;;6269379;28;20049;-83
2024/02/28 01:21:37;;;;;;;9.32;2.85;;;7.90;99.90;;;;;;6245799;28;20068;-83
2024/02/28 01:24:39;;;;;;;13.10;3.47;;;8.00;99.90;;;;;;6249452;28;20199;-82
2024/02/28 01:27:40;;;;;;;10.02;2.85;;;8.00;99.90;;;;;;6269083;28;20053;-82
2024/02/28 01:30:42;;;;;;;10.90;2.58;;;7.90;99.90;;;;;;6239700;28;20590;-83
2024/02/28 01:33:44;;;;;;;10.38;2.90;;;7.90;99.90;;;;;;6210108;28;20050;-82
2024/02/28 01:36:46;;;;;;;9.93;3.00;;;7.90;99.90;;;;;;6244152;28;20073;-82
2024/02/28 01:39:47;;;;;;;9.55;2.75;;;7.90;99.90;;;;;;6227397;28;20492;-83
2024/02/28 01:42:49;;;;;;;10.90;2.67;;;7.90;99.90;;;;;;6254446;28;20061;-82
2024/02/28 01:45:51;;;;;;;7.03;2.80;;;7.90;99.90;;;;;;6259286;28;20045;-83
2024/02/28 01:48:53;;;;;;;9.10;3.00;;;7.90;99.90;;;;;;6230629;28;20132;-82
2024/02/28 01:51:56;;;;;;;8.18;2.60;;;7.90;99.90;;;;;;6241264;28;20140;-82
2024/02/28 01:54:58;;;;;;;7.40;2.60;;;7.90;99.90;;;;;;6244398;28;20672;-82
2024/02/28 01:57:59;;;;;;;8.27;2.85;;;7.80;99.90;;;;;;6238166;28;20067;-82
2024/02/28 02:01:01;;;;;;;9.10;2.25;;;7.80;99.90;;;;;;6264124;28;20049;-82
2024/02/28 02:04:03;;;;;;;9.35;2.70;;;7.80;99.90;;;;;;6242589;28;20595;-82
2024/02/28 02:07:05;;;;;;;10.35;2.90;;;7.80;99.90;;;;;;6267868;28;20056;-82
2024/02/28 02:10:08;;;;;;;8.63;2.80;;;7.80;99.90;;;;;;6243045;28;20049;-82
2024/02/28 02:13:11;;;;;;;7.57;2.50;;;7.70;99.90;;;;;;6263979;28;20107;-83
2024/02/28 02:16:12;;;;;;;8.27;2.50;;;7.70;99.90;;;;;;6238754;28;20053;-82
2024/02/28 02:19:14;;;;;;;9.75;2.90;;;7.70;99.90;;;;;;6206031;28;20049;-82
2024/02/28 02:22:16;;;;;;;11.13;3.15;;;7.70;99.90;;;;;;6247492;28;20608;-83
2024/02/28 02:25:17;;;;;;;7.22;2.58;;;7.60;99.90;;;;;;6241745;28;20410;-83
2024/02/28 02:28:19;;;;;;;8.38;3.05;;;7.50;99.90;;;;;;6262546;28;20052;-83
2024/02/28 02:31:20;;;;;;;11.10;2.90;;;7.40;99.90;;;;;;6230999;28;20057;-83
2024/02/28 02:34:22;;;;;;;10.05;3.00;;;7.30;99.90;;;;;;6268308;28;20057;-83
2024/02/28 02:37:24;;;;;;;13.25;3.10;;;7.10;99.90;;;;;;6221289;28;20065;-83
2024/02/28 02:40:25;;;;;;;7.72;3.03;;;7.00;99.90;;;;;;6248077;28;20045;-83
2024/02/28 02:43:27;;;;;;;8.25;2.88;;;6.90;99.90;;;;;;6260866;28;20060;-80
2024/02/28 02:46:30;;;;;;;8.27;3.10;;;6.80;99.90;;;;;;6250284;28;20562;-83
2024/02/28 02:49:32;;;;;;;9.48;2.92;;;6.60;99.90;;;;;;6242090;28;20539;-83
2024/02/28 02:52:34;;;;;;;12.20;2.90;;;6.50;99.90;;;;;;6268151;28;20432;-83
2024/02/28 02:55:35;;;;;;;8.60;2.85;;;6.50;99.90;;;;;;6226589;28;20057;-83
2024/02/28 02:58:37;;;;;;;12.68;3.40;;;6.30;99.90;;;;;;6245531;28;20041;-84
2024/02/28 03:01:39;;;;;;;11.45;3.58;;;6.30;99.90;;;;;;6237715;28;20054;-83
2024/02/28 03:04:40;;;;;;;9.70;3.25;;;6.20;99.90;;;;;;6240680;28;20572;-83
2024/02/28 03:07:42;;;;;;;11.73;3.33;;;6.10;99.90;;;;;;6241601;28;20073;-83
2024/02/28 03:10:44;;;;;;;8.48;2.95;;;6.00;99.90;;;;;;6251918;28;20072;-83
2024/02/28 03:13:45;;;;;;;6.97;2.90;;;5.90;99.90;;;;;;6257868;28;20053;-83
2024/02/28 03:16:48;;;;;;;10.48;3.03;;;5.90;99.90;;;;;;6269173;28;20049;-83
2024/02/28 03:19:50;;;;;;;13.35;3.30;;;5.80;99.90;;;;;;6271688;28;20485;-83
2024/02/28 03:22:51;;;;;;;9.70;3.55;;;5.70;99.90;;;;;;6243704;28;20052;-83
2024/02/28 03:25:53;;;;;;;16.25;3.78;;;5.70;99.90;;;;;;6228153;28;20049;-83
2024/02/28 03:28:54;;;;;;;9.55;2.95;;;5.70;99.90;;;;;;6234111;28;20057;-83
2024/02/28 03:31:56;;;;;;;11.68;3.35;;;5.60;99.90;;;;;;6240874;28;20571;-83
2024/02/28 03:34:58;;;;;;;7.63;3.22;;;5.50;99.90;;;;;;6241770;28;20516;-83
2024/02/28 03:38:00;;;;;;;9.38;2.85;;;5.50;99.90;;;;;;6245205;28;20053;-83
2024/02/28 03:41:01;;;;;;;10.10;3.03;;;5.40;99.90;;;;;;6246834;28;20517;-84
2024/02/28 03:44:03;;;;;;;12.60;3.83;;;5.40;99.90;;;;;;6250745;28;20528;-83
2024/02/28 03:47:05;;;;;;;8.95;3.13;;;5.40;99.90;;;;;;6247694;28;20065;-82
2024/02/28 03:50:06;;;;;;;9.98;3.10;;;5.40;99.90;;;;;;6220600;28;20501;-83
2024/02/28 03:53:08;;;;;;;12.52;4.07;;;5.40;99.90;;;;;;6242873;28;20221;-84
2024/02/28 03:56:11;;;;;;;10.35;3.85;;;5.50;99.90;;;;;;6239610;28;20253;-84
2024/02/28 03:59:12;;;;;;;10.55;3.90;;;5.60;99.90;;;;;;6233654;28;20485;-83
2024/02/28 04:02:14;;;;;;;11.48;4.10;;;5.70;99.90;;;;;;6241460;28;20050;-83
2024/02/28 04:05:17;;;;;;;8.60;3.25;;;5.70;99.90;;;;;;6244570;28;20141;-83
2024/02/28 04:08:18;;;;;;;10.85;3.75;;;5.80;99.90;;;;;;6245975;28;20050;-83
2024/02/28 04:11:20;;;;;;;8.02;3.80;;;5.90;99.90;;;;;;6271463;22;20045;-83
2024/02/28 04:14:22;;;;;;;13.23;4.60;;;6.10;99.90;;;;;;6228130;28;20124;-84
2024/02/28 04:17:23;;;;;;;10.82;3.60;;;6.30;99.90;;;;;;6269799;28;20049;-83
2024/02/28 04:20:25;;;;;;;9.55;3.42;;;6.30;99.90;;;;;;6270452;28;21045;-83
2024/02/28 04:23:26;;;;;;;8.90;3.35;;;6.40;99.90;;;;;;6271374;28;20053;-84
2024/02/28 04:26:28;;;;;;;11.10;3.70;;;6.50;99.90;;;;;;6247439;28;20053;-85
2024/02/28 04:29:30;;;;;;;15.23;4.20;;;6.50;99.90;;;;;;6259716;28;20203;-84
2024/02/28 04:32:31;;;;;;;12.20;3.60;;;6.60;99.90;;;;;;6251482;28;20049;-84
2024/02/28 04:35:33;;;;;;;9.23;3.60;;;6.70;99.90;;;;;;6253226;28;20053;-84
2024/02/28 04:38:35;;;;;;;14.40;3.80;;;6.70;99.90;;;;;;6244359;28;20061;-84
2024/02/28 04:41:37;;;;;;;9.65;3.03;;;6.70;99.90;;;;;;6252856;28;20427;-84
2024/02/28 04:44:38;;;;;;;9.27;3.50;;;6.70;99.90;;;;;;6256300;28;20045;-85
2024/02/28 04:47:40;;;;;;;13.38;3.90;;;6.70;99.90;;;;;;6271270;28;20060;-84
2024/02/28 04:50:45;;;;;;;12.23;4.05;;;6.70;99.90;;;;;;6246625;28;20060;-84
2024/02/28 04:53:47;;;;;;;11.85;3.80;;;6.80;99.90;;;;;;6269887;28;20056;-84
2024/02/28 04:56:48;;;;;;;9.73;4.00;;;6.80;99.90;;;;;;6245904;28;20064;-84
2024/02/28 04:59:50;;;;;;;10.48;3.95;;;6.80;99.90;;;;;;6253594;28;20626;-85
2024/02/28 05:02:52;;;;;;;8.63;3.72;;;6.90;99.90;;;;;;6246104;28;20050;-84
2024/02/28 05:05:53;;;;;;;10.27;3.67;;;7.00;99.90;;;;;;6269586;28;20057;-84
2024/02/28 05:08:55;;;;;;;12.20;4.00;;;6.90;99.90;;;;;;6225847;28;20060;-84
2024/02/28 05:11:58;;;;;;;11.27;4.50;;;7.00;99.90;;;;;;6255211;28;20068;-84
2024/02/28 05:15:00;;;;;;;10.95;3.95;;;7.00;99.90;;;;;;6259798;28;20095;-84
2024/02/28 05:18:01;;;;;;;11.85;4.07;;;7.10;99.90;;;;;;6257777;28;20518;-84
2024/02/28 05:21:03;;;;;;;10.15;4.15;;;7.10;99.90;;;;;;6270040;28;20045;-84
2024/02/28 05:24:05;;;;;;;11.65;4.97;;;7.10;99.90;;;;;;6260814;28;20057;-84
2024/02/28 05:27:06;;;;;;;13.27;4.72;;;7.20;99.90;;;;;;6268852;28;20045;-84
2024/02/28 05:30:08;;;;;;;9.40;4.55;;;7.20;99.90;;;;;;6252452;28;20050;-84
2024/02/28 05:33:11;;;;;;;11.80;4.85;;;7.20;99.90;;;;;;6251964;28;20057;-84
2024/02/28 05:36:13;;;;;;;9.73;4.85;;;7.30;99.90;;;;;;6246037;28;20058;-84
2024/02/28 05:39:14;;;;;;;11.82;4.68;;;7.40;99.90;;;;;;6264396;28;20504;-83
2024/02/28 05:42:21;;;;;;;11.32;4.72;;;7.40;99.90;;;;;;6260160;28;20050;-83
2024/02/28 05:45:23;;;;;;;9.07;5.07;;;7.40;99.90;;;;;;6215475;28;20049;-84
2024/02/28 05:48:25;;;;;;;9.05;4.38;;;7.40;99.90;;;;;;6267701;28;20119;-84
2024/02/28 05:51:26;;;;;;;9.27;4.80;;;7.40;99.90;;;;;;6258942;28;20059;-84
2024/02/28 05:54:28;;;;;;;11.82;5.10;;;7.40;99.90;;;;;;6259239;28;20052;-83
2024/02/28 05:57:31;;;;;;;11.07;5.53;;;7.50;99.90;;;;;;6263511;28;20053;-84
2024/02/28 06:00:33;;;;;;;10.68;5.28;;;7.50;99.90;;;;;;6255210;28;20045;-84
2024/02/28 06:03:34;;;;;;;13.15;5.43;;;7.50;99.90;;;;;;6269290;28;20139;-84
2024/02/28 06:06:36;;;;;;;10.43;4.93;;;7.60;99.90;;;;;;6237709;28;20496;-85
2024/02/28 06:09:38;;;;;;;10.45;5.03;;;7.60;99.90;;;;;;6257695;28;20182;-84
2024/02/28 06:12:39;;;;;;;10.93;5.25;;;7.60;99.90;;;;;;6251202;28;20462;-84
2024/02/28 06:15:42;;;;;;;12.55;4.75;;;7.60;99.90;;;;;;6235048;28;20045;-84
2024/02/28 06:18:44;;;;;;;12.50;4.82;;;7.60;99.90;;;;;;6203259;28;20086;-84
2024/02/28 06:21:46;;;;;;;8.32;4.22;;;7.60;99.90;;;;;;6255395;28;20542;-84
2024/02/28 06:24:47;;;;;;;16.65;5.82;;;7.70;99.90;;;;;;6253986;28;20049;-85
2024/02/28 06:27:49;;;;;;;11.15;5.20;;;7.60;99.90;;;;;;6257777;28;20041;-84
2024/02/28 06:30:51;;;;;;;10.70;5.38;;;7.60;99.90;;;;;;6253230;28;20060;-83
2024/02/28 06:33:52;;;;;;;11.30;5.10;;;7.60;99.90;;;;;;6229648;28;20141;-81
2024/02/28 06:36:54;;;;;;;14.00;5.30;;;7.60;99.90;;;;;;6234980;28;20045;-82
2024/02/28 06:39:56;;;;;;;13.52;5.10;;;7.70;99.90;;;;;;6261677;28;20055;-82
2024/02/28 06:42:58;;;;;;;11.48;5.47;;;7.70;99.90;;;;;;6271061;28;20243;-82
2024/02/28 06:46:00;;;;;;;12.00;5.55;;;7.70;99.90;;;;;;6250113;28;20052;-83
2024/02/28 06:49:02;;;;;;;12.05;5.70;;;7.70;99.90;;;;;;6259546;28;20128;-84
2024/02/28 06:52:03;;;;;;;12.27;5.68;;;7.70;99.90;;;;;;6263089;28;20057;-83
2024/02/28 06:55:10;;;;;;;11.52;5.93;;;7.70;99.90;;;;;;6271320;28;20083;-83
2024/02/28 06:58:12;;;;;;;12.23;5.80;;;7.70;99.90;;;;;;6248742;28;20060;-80
2024/02/28 07:01:15;;;;;;;10.88;5.70;;;7.70;99.90;;;;;;6260019;28;20090;-83
2024/02/28 07:04:17;;;;;;;10.85;5.28;;;7.70;99.90;;;;;;6226055;28;20147;-84
2024/02/28 07:07:18;;;;;;;8.70;4.93;;;7.70;99.90;;;;;;6269255;28;20049;-82
2024/02/28 07:10:20;;;;;;;12.75;5.15;;;7.60;99.90;;;;;;6268676;28;20045;-84
2024/02/28 07:13:22;;;;;;;9.82;4.57;;;7.50;99.90;;;;;;6264698;28;20191;-84
2024/02/28 07:16:23;;;;;;;8.57;4.30;;;7.50;99.90;;;;;;6275454;28;20056;-84
2024/02/28 07:19:25;;;;;;;10.57;5.05;;;7.40;99.90;;;;;;6275066;28;20056;-84
2024/02/28 07:22:27;;;;;;;10.70;4.78;;;7.40;99.90;;;;;;6275826;28;20052;-84
2024/02/28 07:25:29;;;;;;;9.77;4.75;;;7.40;99.90;;;;;;6243840;28;20054;-87
2024/02/28 07:28:31;;;;;;;9.18;5.22;;;7.40;99.90;;;;;;6250235;28;20384;-83
2024/02/28 07:31:32;;;;;;;10.20;5.32;;;7.30;99.90;;;;;;6248876;28;20061;-82
2024/02/28 07:34:34;;;;;;;12.63;5.97;;;7.40;99.90;;;;;;6273035;28;20049;-83
2024/02/28 07:37:36;;;;;;;11.00;5.65;;;7.40;99.90;;;;;;6247153;28;20059;-83
2024/02/28 07:40:37;;;;;;;9.60;5.40;;;7.40;99.90;;;;;;6246642;28;20518;-85
2024/02/28 07:43:39;;;;;;;13.45;6.47;;;7.50;99.90;;;;;;6267880;28;20055;-84
2024/02/28 07:46:40;;;;;;;12.57;6.13;;;7.60;99.90;;;;;;6244718;28;20053;-84
2024/02/28 07:49:42;;;;;;;12.25;5.63;;;7.70;99.90;;;;;;6272754;28;20057;-84
2024/02/28 07:52:43;;;;;;;11.02;6.00;;;7.80;99.90;;;;;;6249234;28;20519;-83
2024/02/28 07:55:45;;;;;;;12.63;5.93;;;7.90;99.90;;;;;;6266119;28;20412;-84
2024/02/28 07:58:47;;;;;;;10.88;5.10;;;7.90;99.90;;;;;;6227436;28;20041;-85
2024/02/28 08:01:48;;;;;;;9.35;4.50;;;8.00;99.90;;;;;;6264538;28;20052;-86
2024/02/28 08:04:50;;;;;;;11.48;4.53;;;8.10;99.90;;;;;;6261999;28;20053;-86
2024/02/28 08:07:52;;;;;;;10.73;4.93;;;8.10;99.90;;;;;;6254117;28;20823;-89
2024/02/28 08:10:54;;;;;;;10.02;4.65;;;8.20;99.90;;;;;;6258259;28;20049;-86
2024/02/28 08:13:56;;;;;;;10.20;5.28;;;8.30;99.90;;;;;;6251739;28;20049;-85
2024/02/28 08:16:58;;;;;;;12.15;4.90;;;8.50;99.90;;;;;;6260473;28;20064;-84
2024/02/28 08:19:59;;;;;;;10.02;5.22;;;8.40;99.90;;;;;;6268525;28;20500;-85
2024/02/28 08:23:01;;;;;;;11.32;5.18;;;8.50;99.90;;;;;;6272756;28;20045;-86
2024/02/28 08:26:04;;;;;;;11.57;5.07;;;8.50;99.90;;;;;;6223760;28;20515;-80
2024/02/28 08:29:05;;;;;;;10.85;5.32;;;8.60;99.90;;;;;;6239288;28;20412;-92
2024/02/28 08:32:07;;;;;;;11.85;5.68;;;8.70;99.90;;;;;;6262230;28;20052;-84
2024/02/28 08:35:10;;;;;;;12.65;6.10;;;8.70;99.90;;;;;;6259102;28;20069;-82
2024/02/28 08:38:12;;;;;;;12.68;5.97;;;8.80;99.90;;;;;;6257222;28;20049;-85
2024/02/28 08:41:14;;;;;;;16.13;5.93;;;8.80;99.90;;;;;;6252757;28;20071;-85
2024/02/28 08:44:16;;;;;;;13.23;6.10;;;8.90;99.90;;;;;;6232535;28;20435;-85
2024/02/28 08:47:18;;;;;;;11.32;6.22;;;8.90;99.90;;;;;;6250769;28;20053;-81
2024/02/28 08:50:20;;;;;;;12.70;6.75;;;9.00;99.90;;;;;;6261936;28;20059;-87
2024/02/28 08:53:22;;;;;;;12.25;6.28;;;9.00;99.90;;;;;;6251830;28;20053;-87
2024/02/28 08:56:24;;;;;;;15.38;6.97;;;9.00;99.90;;;;;;6241426;28;20432;-92
2024/02/28 08:59:25;;;;;;;12.68;6.88;;;9.10;99.90;;;;;;6252598;28;20057;-83
2024/02/28 09:02:27;;;;;;;11.63;6.47;;;9.20;99.90;;;;;;6254052;28;20057;-82
2024/02/28 09:05:29;;;;;;;12.85;6.65;;;9.50;99.90;;;;;;6246684;28;20056;-82
2024/02/28 09:08:30;;;;;;;12.55;6.30;;;9.30;99.90;;;;;;6251269;28;20053;-88
2024/02/28 09:11:32;;;;;;;12.07;6.82;;;9.30;99.90;;;;;;6253616;28;20061;-84
2024/02/28 09:14:34;;;;;;;14.57;6.55;;;9.30;99.90;;;;;;6237734;28;20348;-90
2024/02/28 09:17:36;;;;;;;16.27;6.97;;;9.60;99.90;;;;;;6262068;28;20053;-83
2024/02/28 09:20:37;;;;;;;15.18;6.88;;;9.50;99.90;;;;;;6229121;28;20041;-86
2024/02/28 09:23:39;;;;;;;12.75;6.85;;;9.60;99.90;;;;;;6273376;28;20500;-90
2024/02/28 09:26:41;;;;;;;14.60;6.50;;;9.60;99.90;;;;;;6229101;28;20045;-81
2024/02/28 09:29:42;;;;;;;12.73;6.20;;;9.70;99.90;;;;;;6231277;28;20057;-81
2024/02/28 09:32:44;;;;;;;12.55;6.45;;;9.80;99.90;;;;;;6250622;28;20056;-86
2024/02/28 09:35:46;;;;;;;12.25;6.60;;;10.00;99.90;;;;;;6258024;28;20053;-88
2024/02/28 09:38:47;;;;;;;14.55;7.05;;;10.00;99.90;;;;;;6234976;28;20057;-87
2024/02/28 09:41:49;;;;;;;15.23;7.30;;;10.00;99.90;;;;;;6251260;28;20049;-83
2024/02/28 09:44:52;;;;;;;12.60;6.60;;;10.10;99.90;;;;;;6222931;28;20499;-92
2024/02/28 09:47:57;;;;;;;12.90;6.65;;;10.10;99.90;;;;;;6206287;28;20144;-87
2024/02/28 09:50:59;;;;;;;15.32;6.82;;;10.10;99.90;;;;;;6252064;28;20044;-87
2024/02/28 09:54:00;;;;;;;13.07;6.30;;;10.20;99.90;;;;;;6250375;28;20053;-91
2024/02/28 09:57:05;;;;;;;16.65;5.50;;;10.30;99.90;;;;;;6245800;28;20114;-85
2024/02/28 10:00:06;;;;;;;15.02;5.93;;;10.30;99.90;;;;;;6258612;28;20048;-82
2024/02/28 10:03:08;;;;;;;12.85;5.57;;;10.40;99.90;;;;;;6255458;28;20049;-81
2024/02/28 10:06:10;;;;;;;10.73;5.80;;;10.40;99.90;;;;;;6257274;28;20060;-82
2024/02/28 10:09:13;;;;;;;13.32;5.47;;;10.50;99.90;;;;;;6266601;28;20055;-83
2024/02/28 10:12:15;;;;;;;11.38;5.07;;;10.50;99.90;;;;;;6232355;28;20061;-81
2024/02/28 10:15:16;;;;;;;10.02;4.72;;;10.50;99.90;;;;;;6235441;28;20507;-80
2024/02/28 10:18:18;;;;;;;9.57;5.00;;;10.60;99.90;;;;;;6255157;28;20082;-79
2024/02/28 10:21:20;;;;;;;8.93;4.55;;;10.50;99.90;;;;;;6261774;28;20059;-80
2024/02/28 10:24:22;;;;;;;12.40;4.50;;;10.50;99.90;;;;;;6260608;28;20131;-82
2024/02/28 10:27:24;;;;;;;8.65;3.78;;;10.60;99.90;;;;;;6266038;28;20412;-83
2024/02/28 10:30:26;;;;;;;9.07;3.72;;;10.80;99.90;;;;;;6241319;28;20053;-81
2024/02/28 10:33:33;;;;;;;9.32;3.65;;;10.60;99.90;;;;;;6229668;28;20053;-85
2024/02/28 10:36:35;;;;;;;7.28;3.05;;;10.60;99.90;;;;;;6249174;28;20041;-87
2024/02/28 10:39:36;;;;;;;7.32;3.08;;;10.70;99.90;;;;;;6242567;28;20057;-85
2024/02/28 10:42:40;;;;;;;7.90;3.30;;;10.80;99.90;;;;;;6243932;28;20182;-86
2024/02/28 10:45:42;;;;;;;6.55;2.97;;;10.90;99.90;;;;;;6224657;28;20053;-85
2024/02/28 10:49:03;;;;;;;7.75;2.72;;;11.00;99.90;;;;;;6226568;28;20108;-84
2024/02/28 10:52:05;;;;;;;6.65;2.63;;;11.10;99.50;;;;;;6267627;28;20052;-82
2024/02/28 10:55:07;;;;;;;4.95;2.05;;;11.20;99.90;;;;;;6258833;28;20049;-89
2024/02/28 10:58:12;;;;;;;5.15;1.80;;;11.20;96.40;;;;;;6253900;28;20471;-87
2024/02/28 11:01:14;;;;;;;6.82;2.10;;;11.20;96.60;;;;;;6239855;28;20050;-89
2024/02/28 11:04:17;;;;;;;6.57;1.98;;;11.30;96.60;;;;;;6250305;28;20160;-82
2024/02/28 11:07:18;;;;;;;6.20;2.00;;;11.20;94.90;;;;;;6260168;28;20053;-82
2024/02/28 11:10:20;;;;;;;8.63;2.30;;;11.20;92.90;;;;;;6260662;28;20049;-83
2024/02/28 11:13:22;;;;;;;6.03;1.80;;;11.30;91.30;;;;;;6242788;28;20287;-85
2024/02/28 11:16:24;;;;;;;7.40;1.38;;;11.40;92.00;;;;;;6235335;28;20053;-90
2024/02/28 11:19:26;;;;;;;9.05;1.83;;;11.60;87.90;;;;;;6231812;28;20059;-83
2024/02/28 11:22:27;;;;;;;4.40;1.38;;;11.70;83.90;;;;;;6257348;28;20396;-84
2024/02/28 11:25:29;;;;;;;3.95;1.48;;;11.90;77.00;;;;;;6248851;28;20058;-84
2024/02/28 11:28:31;;;;;;;2.65;1.10;;;11.90;75.70;;;;;;6252391;28;20045;-84
2024/02/28 11:31:35;;;;;;;4.03;1.30;;;12.10;69.80;;;;;;6248147;28;20057;-84
2024/02/28 11:34:39;;;;;;;5.70;1.50;;;11.90;66.90;;;;;;6263921;28;20049;-83
2024/02/28 11:37:41;;;;;;;6.15;2.17;;;12.00;68.50;;;;;;6230450;28;20060;-84
2024/02/28 11:40:42;;;;;;;5.40;1.40;;;12.20;67.30;;;;;;6265214;28;20088;-84
2024/02/28 11:43:44;;;;;;;2.67;1.00;;;12.30;51.30;;;;;;6224940;28;20226;-84
2024/02/28 11:46:53;;;;;;;4.32;1.38;;;12.50;53.60;;;;;;6222988;28;20058;-85
2024/02/28 11:49:54;;;;;;;5.10;1.48;;;12.70;43.00;;;;;;6271005;28;20056;-84
2024/02/28 11:52:56;;;;;;;3.92;1.20;;;13.30;34.20;;;;;;6246000;28;20140;-83
2024/02/28 11:55:58;;;;;;;4.60;1.35;;;13.50;14.70;;;;;;6247326;28;20507;-83
2024/02/28 11:58:59;;;;;;;9.85;1.95;;;13.50;16.50;;;;;;6235862;28;20068;-83
2024/02/28 12:02:01;;;;;;;3.42;1.00;;;13.90;1.40;;;;;;6266703;28;20049;-83
2024/02/28 12:05:04;;;;;;;3.85;1.50;;;13.90;1.00;;;;;;6247274;28;20642;-83
2024/02/28 12:08:09;;;;;;;5.85;1.35;;;13.90;1.00;;;;;;6219374;28;20424;-83
2024/02/28 12:11:11;;;;;;;5.35;1.30;;;14.00;1.00;;;;;;6243675;28;20087;-82
2024/02/28 12:14:13;;;;;;;7.40;1.60;;;13.90;1.00;;;;;;6234968;28;20475;-83
2024/02/28 12:17:14;;;;;;;3.58;1.27;;;13.80;1.00;;;;;;6267971;28;20053;-83
2024/02/28 12:20:16;;;;;;;6.45;1.73;;;13.70;1.00;;;;;;6247573;28;20065;-83
2024/02/28 12:23:18;;;;;;;6.85;1.50;;;13.50;1.00;;;;;;6268975;28;20056;-83
2024/02/28 12:26:19;;;;;;;6.53;1.60;;;13.30;1.00;;;;;;6229127;28;20057;-82
2024/02/28 12:29:21;;;;;;;8.07;1.50;;;13.30;1.00;;;;;;6241530;28;20496;-81
2024/02/28 12:32:23;;;;;;;7.03;1.73;;;13.40;1.00;;;;;;6228002;28;20518;-83
2024/02/28 12:35:24;;;;;;;9.07;2.08;;;13.20;1.00;;;;;;6269249;28;20056;-84
2024/02/28 12:38:26;;;;;;;5.68;1.30;;;13.40;1.00;;;;;;6245240;28;20060;-82
2024/02/28 12:41:28;;;;;;;7.20;1.63;;;13.40;1.00;;;;;;6250551;28;20480;-82
2024/02/28 12:44:35;;;;;;;5.18;1.80;;;13.60;1.00;;;;;;6202613;28;20123;-82
2024/02/28 12:47:37;;;;;;;5.90;1.20;;;13.50;1.00;;;;;;6269466;28;20049;-82
2024/02/28 12:50:39;;;;;;;7.50;1.45;;;13.20;1.00;;;;;;6228904;28;20061;-83
2024/02/28 12:53:40;;;;;;;6.38;1.38;;;13.00;1.00;;;;;;6235627;28;20056;-85
2024/02/28 12:56:43;;;;;;;5.63;1.20;;;13.10;1.00;;;;;;6246568;28;20437;-84
2024/02/28 12:59:44;;;;;;;5.40;1.35;;;13.20;1.00;;;;;;6224564;28;20069;-84
2024/02/28 13:02:51;;;;;;;6.90;1.60;;;13.20;1.00;;;;;;6204310;28;20057;-84
2024/02/28 13:05:52;;;;;;;7.30;1.90;;;13.20;1.00;;;;;;6270797;28;20053;-85
2024/02/28 13:08:54;;;;;;;7.85;1.27;;;13.40;1.00;;;;;;6246192;28;20146;-83
2024/02/28 13:11:57;;;;;;;6.20;1.27;;;13.30;1.00;;;;;;6249334;28;20057;-83
2024/02/28 13:14:58;;;;;;;6.90;1.20;;;13.10;1.00;;;;;;6259880;28;20056;-84
2024/02/28 13:18:01;;;;;;;5.82;1.30;;;13.10;1.00;;;;;;6228435;28;20053;-83
2024/02/28 13:21:04;;;;;;;10.02;1.52;;;13.20;1.00;;;;;;6265900;28;20057;-84
2024/02/28 13:24:06;;;;;;;6.93;1.50;;;13.40;1.00;;;;;;6245363;28;20061;-85
2024/02/28 13:27:09;;;;;;;4.78;1.20;;;13.50;1.00;;;;;;6266522;28;20056;-85
2024/02/28 13:30:10;;;;;;;7.75;1.67;;;13.30;1.00;;;;;;6216200;28;20061;-84
2024/02/28 13:33:12;;;;;;;7.18;1.15;;;13.40;1.00;;;;;;6265937;28;20491;-84
2024/02/28 13:36:14;;;;;;;5.95;1.42;;;13.30;1.00;;;;;;6245254;28;20678;-83
2024/02/28 13:39:16;;;;;;;7.07;1.17;;;13.40;1.00;;;;;;6266587;28;20049;-83
2024/02/28 13:42:19;;;;;;;6.28;1.00;;;13.40;1.00;;;;;;6244637;28;20049;-84
2024/02/28 13:45:21;;;;;;;5.65;1.17;;;13.50;1.00;;;;;;6258376;28;20468;-83
2024/02/28 13:48:31;;;;;;;3.95;1.02;;;13.40;1.00;;;;;;6244726;28;20135;-83
2024/02/28 13:51:32;;;;;;;4.53;1.00;;;13.30;1.00;;;;;;6220399;28;20073;-83
2024/02/28 13:54:35;;;;;;;4.05;1.40;;;13.20;1.00;;;;;;6248498;28;20052;-83
2024/02/28 13:57:36;;;;;;;18.70;2.30;;;13.30;1.00;;;;;;6266941;28;20435;-87
2024/02/28 14:00:38;;;;;;;7.70;1.48;;;13.20;1.00;;;;;;6234469;28;20049;-84
2024/02/28 14:03:40;;;;;;;8.73;1.70;;;13.30;1.00;;;;;;6212110;28;20065;-84
2024/02/28 14:06:43;;;;;;;7.22;1.70;;;13.30;1.00;;;;;;6251111;28;20052;-83
2024/02/28 14:09:45;;;;;;;8.57;1.90;;;13.30;1.00;;;;;;6226632;28;20139;-83
2024/02/28 14:12:47;;;;;;;7.85;1.75;;;13.30;1.00;;;;;;6258415;28;20195;-83
2024/02/28 14:15:51;;;;;;;12.18;2.30;;;13.10;1.00;;;;;;6234121;28;20056;-82
2024/02/28 14:18:53;;;;;;;8.60;1.90;;;13.00;1.00;;;;;;6213866;28;20516;-84
2024/02/28 14:21:54;;;;;;;8.25;2.30;;;13.00;1.00;;;;;;6267961;28;20373;-84
2024/02/28 14:24:56;;;;;;;10.20;1.85;;;12.90;1.00;;;;;;6244454;28;20212;-83
2024/02/28 14:27:58;;;;;;;11.13;1.92;;;12.80;1.00;;;;;;6230785;28;20050;-84
2024/02/28 14:31:03;;;;;;;11.40;2.10;;;12.60;1.00;;;;;;6226395;28;20061;-86
2024/02/28 14:34:05;;;;;;;14.13;2.75;;;12.70;1.00;;;;;;6194493;28;20057;-87
2024/02/28 14:37:07;;;;;;;10.15;2.17;;;12.70;1.00;;;;;;6268014;28;20048;-86
2024/02/28 14:40:12;;;;;;;12.60;2.08;;;12.70;1.00;;;;;;6245577;28;20393;-85
2024/02/28 14:43:15;;;;;;;15.13;2.35;;;12.80;1.00;;;;;;6249105;28;20667;-85
2024/02/28 14:46:18;;;;;;;13.60;2.95;;;12.80;1.00;;;;;;6243769;28;20058;-83
2024/02/28 14:49:20;;;;;;;11.43;2.50;;;12.70;1.00;;;;;;6246943;28;20064;-83
2024/02/28 14:52:22;;;;;;;14.48;3.17;;;12.80;1.00;;;;;;6243659;28;20058;-83
2024/02/28 14:55:24;;;;;;;12.82;2.65;;;12.70;1.00;;;;;;6241185;28;20053;-83
2024/02/28 14:58:25;;;;;;;12.73;2.22;;;12.80;1.00;;;;;;6244562;28;20077;-85
2024/02/28 15:01:27;;;;;;;16.42;2.78;;;12.60;1.00;;;;;;6269928;28;20063;-84
2024/02/28 15:04:29;;;;;;;15.98;3.10;;;12.50;3.40;;;;;;6248762;28;20049;-84
2024/02/28 15:07:31;;;;;;;10.80;2.28;;;12.40;10.30;;;;;;6256132;28;20057;-82
2024/02/28 15:10:33;;;;;;;18.60;2.92;;;12.30;18.70;;;;;;6260752;28;20057;-83
2024/02/28 15:13:35;;;;;;;17.48;2.88;;;12.40;24.70;;;;;;6210582;28;20448;-83
2024/02/28 15:16:36;;;;;;;13.52;2.28;;;12.30;24.40;;;;;;6237978;28;20054;-83
2024/02/28 15:19:38;;;;;;;24.95;2.83;;;12.20;27.80;;;;;;6239831;28;20424;-84
2024/02/28 15:22:40;;;;;;;19.85;3.33;;;12.20;39.70;;;;;;6249928;28;20045;-84
2024/02/28 15:26:04;;;;;;;16.55;3.30;;;12.30;48.10;;;;;;6274352;28;20090;-84
2024/02/28 15:29:04;;;;;;;15.40;3.83;;;12.20;41.50;;;;;;6260513;28;20049;-83
2024/02/28 15:32:06;;;;;;;15.88;3.05;;;11.90;65.40;;;;;;6270889;28;20842;-85
2024/02/28 15:35:07;;;;;;;9.23;2.75;;;11.80;70.10;;;;;;6251642;28;20049;-84
2024/02/28 15:38:09;;;;;;;13.85;2.80;;;11.80;75.30;;;;;;6270495;28;20061;-84
2024/02/28 15:41:11;;;;;;;18.85;2.88;;;11.80;79.30;;;;;;6270662;28;20060;-83
2024/02/28 15:44:13;;;;;;;12.30;2.05;;;11.80;81.90;;;;;;6246957;28;20459;-83
2024/02/28 15:47:15;;;;;;;13.10;2.42;;;11.70;86.80;;;;;;6267565;28;20071;-82
2024/02/28 15:50:18;;;;;;;10.30;2.00;;;11.60;90.40;;;;;;6246377;28;20100;-83